sensor_id;sensor_type;location;lat;lon;timestamp;P1;durP1;ratioP1;P2;durP2;ratioP2
46781;SDS011;32541;46.298;11.506;2024-03-22T00:00:28;0.60;;;0.43;;
46781;SDS011;32541;46.298;11.506;2024-03-22T00:02:53;0.90;;;0.63;;
46781;SDS011;32541;46.298;11.506;2024-03-22T00:05:19;0.80;;;0.65;;
46781;SDS011;32541;46.298;11.506;2024-03-22T00:07:46;1.48;;;0.68;;
46781;SDS011;32541;46.298;11.506;2024-03-22T00:10:11;3.47;;;0.77;;
46781;SDS011;32541;46.298;11.506;2024-03-22T00:12:38;1.30;;;0.60;;
46781;SDS011;32541;46.298;11.506;2024-03-22T00:15:03;1.00;;;0.63;;
46781;SDS011;32541;46.298;11.506;2024-03-22T00:17:29;1.98;;;0.77;;
46781;SDS011;32541;46.298;11.506;2024-03-22T00:19:55;0.88;;;0.60;;
46781;SDS011;32541;46.298;11.506;2024-03-22T00:22:21;1.25;;;0.60;;
46781;SDS011;32541;46.298;11.506;2024-03-22T00:24:46;1.48;;;0.50;;
46781;SDS011;32541;46.298;11.506;2024-03-22T00:27:12;2.35;;;0.70;;
46781;SDS011;32541;46.298;11.506;2024-03-22T00:29:37;2.15;;;0.80;;
46781;SDS011;32541;46.298;11.506;2024-03-22T00:32:04;1.70;;;0.65;;
46781;SDS011;32541;46.298;11.506;2024-03-22T00:34:29;1.00;;;0.70;;
46781;SDS011;32541;46.298;11.506;2024-03-22T00:36:55;2.30;;;0.60;;
46781;SDS011;32541;46.298;11.506;2024-03-22T00:39:20;2.33;;;0.82;;
46781;SDS011;32541;46.298;11.506;2024-03-22T00:41:45;3.72;;;0.95;;
46781;SDS011;32541;46.298;11.506;2024-03-22T00:44:11;2.10;;;0.70;;
46781;SDS011;32541;46.298;11.506;2024-03-22T00:46:36;1.27;;;0.68;;
46781;SDS011;32541;46.298;11.506;2024-03-22T00:49:02;3.28;;;0.60;;
46781;SDS011;32541;46.298;11.506;2024-03-22T00:51:27;0.98;;;0.57;;
46781;SDS011;32541;46.298;11.506;2024-03-22T00:53:53;1.90;;;0.70;;
46781;SDS011;32541;46.298;11.506;2024-03-22T00:56:18;1.35;;;0.75;;
46781;SDS011;32541;46.298;11.506;2024-03-22T00:58:44;2.60;;;0.80;;
46781;SDS011;32541;46.298;11.506;2024-03-22T01:01:09;0.93;;;0.68;;
46781;SDS011;32541;46.298;11.506;2024-03-22T01:03:34;2.38;;;0.70;;
46781;SDS011;32541;46.298;11.506;2024-03-22T01:06:01;1.33;;;0.93;;
46781;SDS011;32541;46.298;11.506;2024-03-22T01:08:26;1.67;;;0.90;;
46781;SDS011;32541;46.298;11.506;2024-03-22T01:10:52;1.37;;;0.90;;
46781;SDS011;32541;46.298;11.506;2024-03-22T01:13:18;2.07;;;1.00;;
46781;SDS011;32541;46.298;11.506;2024-03-22T01:15:43;1.40;;;0.70;;
46781;SDS011;32541;46.298;11.506;2024-03-22T01:18:09;3.40;;;0.97;;
46781;SDS011;32541;46.298;11.506;2024-03-22T01:20:34;2.27;;;0.87;;
46781;SDS011;32541;46.298;11.506;2024-03-22T01:23:00;1.17;;;0.73;;
46781;SDS011;32541;46.298;11.506;2024-03-22T01:25:26;1.10;;;0.70;;
46781;SDS011;32541;46.298;11.506;2024-03-22T01:27:52;1.67;;;0.98;;
46781;SDS011;32541;46.298;11.506;2024-03-22T01:30:17;1.45;;;0.90;;
46781;SDS011;32541;46.298;11.506;2024-03-22T01:32:43;1.88;;;1.10;;
46781;SDS011;32541;46.298;11.506;2024-03-22T01:35:08;1.85;;;1.17;;
46781;SDS011;32541;46.298;11.506;2024-03-22T01:37:34;3.53;;;1.07;;
46781;SDS011;32541;46.298;11.506;2024-03-22T01:39:59;2.53;;;0.90;;
46781;SDS011;32541;46.298;11.506;2024-03-22T01:42:25;3.42;;;1.08;;
46781;SDS011;32541;46.298;11.506;2024-03-22T01:44:50;2.55;;;0.90;;
46781;SDS011;32541;46.298;11.506;2024-03-22T01:47:16;4.20;;;1.10;;
46781;SDS011;32541;46.298;11.506;2024-03-22T01:49:42;1.05;;;0.80;;
46781;SDS011;32541;46.298;11.506;2024-03-22T01:52:08;1.90;;;1.10;;
46781;SDS011;32541;46.298;11.506;2024-03-22T01:54:33;1.48;;;0.90;;
46781;SDS011;32541;46.298;11.506;2024-03-22T01:56:59;2.57;;;0.93;;
46781;SDS011;32541;46.298;11.506;2024-03-22T01:59:25;1.83;;;1.10;;
46781;SDS011;32541;46.298;11.506;2024-03-22T02:01:51;2.67;;;1.40;;
46781;SDS011;32541;46.298;11.506;2024-03-22T02:04:17;2.72;;;1.23;;
46781;SDS011;32541;46.298;11.506;2024-03-22T02:06:43;4.00;;;1.23;;
46781;SDS011;32541;46.298;11.506;2024-03-22T02:09:08;2.07;;;1.33;;
46781;SDS011;32541;46.298;11.506;2024-03-22T02:11:34;2.23;;;1.07;;
46781;SDS011;32541;46.298;11.506;2024-03-22T02:14:01;2.63;;;1.20;;
46781;SDS011;32541;46.298;11.506;2024-03-22T02:16:26;3.17;;;0.97;;
46781;SDS011;32541;46.298;11.506;2024-03-22T02:18:52;1.07;;;0.70;;
46781;SDS011;32541;46.298;11.506;2024-03-22T02:21:17;1.43;;;0.90;;
46781;SDS011;32541;46.298;11.506;2024-03-22T02:23:42;1.20;;;0.80;;
46781;SDS011;32541;46.298;11.506;2024-03-22T02:26:08;1.83;;;0.90;;
46781;SDS011;32541;46.298;11.506;2024-03-22T02:28:33;1.23;;;0.73;;
46781;SDS011;32541;46.298;11.506;2024-03-22T02:31:00;2.23;;;0.80;;
46781;SDS011;32541;46.298;11.506;2024-03-22T02:33:26;1.17;;;0.93;;
46781;SDS011;32541;46.298;11.506;2024-03-22T02:35:51;1.40;;;0.90;;
46781;SDS011;32541;46.298;11.506;2024-03-22T02:38:17;3.17;;;1.00;;
46781;SDS011;32541;46.298;11.506;2024-03-22T02:40:43;1.63;;;1.17;;
46781;SDS011;32541;46.298;11.506;2024-03-22T02:43:09;2.30;;;1.00;;
46781;SDS011;32541;46.298;11.506;2024-03-22T02:45:35;2.27;;;1.10;;
46781;SDS011;32541;46.298;11.506;2024-03-22T02:48:01;2.27;;;0.80;;
46781;SDS011;32541;46.298;11.506;2024-03-22T02:50:26;2.03;;;1.10;;
46781;SDS011;32541;46.298;11.506;2024-03-22T02:52:52;1.90;;;1.00;;
46781;SDS011;32541;46.298;11.506;2024-03-22T02:55:17;3.13;;;0.93;;
46781;SDS011;32541;46.298;11.506;2024-03-22T02:57:42;1.50;;;0.90;;
46781;SDS011;32541;46.298;11.506;2024-03-22T03:00:08;2.07;;;1.10;;
46781;SDS011;32541;46.298;11.506;2024-03-22T03:02:33;1.77;;;0.90;;
46781;SDS011;32541;46.298;11.506;2024-03-22T03:04:59;1.43;;;0.80;;
46781;SDS011;32541;46.298;11.506;2024-03-22T03:07:25;2.30;;;1.00;;
46781;SDS011;32541;46.298;11.506;2024-03-22T03:09:53;2.57;;;1.10;;
46781;SDS011;32541;46.298;11.506;2024-03-22T03:12:18;1.30;;;1.20;;
46781;SDS011;32541;46.298;11.506;2024-03-22T03:14:44;2.47;;;1.10;;
46781;SDS011;32541;46.298;11.506;2024-03-22T03:17:09;3.47;;;0.90;;
46781;SDS011;32541;46.298;11.506;2024-03-22T03:19:35;1.93;;;0.97;;
46781;SDS011;32541;46.298;11.506;2024-03-22T03:22:01;1.93;;;1.03;;
46781;SDS011;32541;46.298;11.506;2024-03-22T03:24:26;2.60;;;0.83;;
46781;SDS011;32541;46.298;11.506;2024-03-22T03:26:52;2.60;;;1.03;;
46781;SDS011;32541;46.298;11.506;2024-03-22T03:29:17;3.97;;;1.43;;
46781;SDS011;32541;46.298;11.506;2024-03-22T03:31:42;1.10;;;0.90;;
46781;SDS011;32541;46.298;11.506;2024-03-22T03:34:08;2.53;;;1.10;;
46781;SDS011;32541;46.298;11.506;2024-03-22T03:36:33;2.10;;;1.00;;
46781;SDS011;32541;46.298;11.506;2024-03-22T03:38:58;2.27;;;1.20;;
46781;SDS011;32541;46.298;11.506;2024-03-22T03:41:24;1.80;;;1.00;;
46781;SDS011;32541;46.298;11.506;2024-03-22T03:43:49;2.00;;;1.10;;
46781;SDS011;32541;46.298;11.506;2024-03-22T03:46:15;1.77;;;1.23;;
46781;SDS011;32541;46.298;11.506;2024-03-22T03:48:40;3.20;;;1.27;;
46781;SDS011;32541;46.298;11.506;2024-03-22T03:51:05;18.47;;;7.80;;
46781;SDS011;32541;46.298;11.506;2024-03-22T03:53:31;10.40;;;4.20;;
46781;SDS011;32541;46.298;11.506;2024-03-22T03:55:56;4.73;;;2.60;;
46781;SDS011;32541;46.298;11.506;2024-03-22T03:58:22;2.50;;;1.60;;
46781;SDS011;32541;46.298;11.506;2024-03-22T04:00:47;2.77;;;1.40;;
46781;SDS011;32541;46.298;11.506;2024-03-22T04:03:13;1.83;;;0.97;;
46781;SDS011;32541;46.298;11.506;2024-03-22T04:05:38;3.70;;;1.03;;
46781;SDS011;32541;46.298;11.506;2024-03-22T04:08:04;2.13;;;1.00;;
46781;SDS011;32541;46.298;11.506;2024-03-22T04:10:30;1.60;;;1.00;;
46781;SDS011;32541;46.298;11.506;2024-03-22T04:12:55;1.60;;;1.13;;
46781;SDS011;32541;46.298;11.506;2024-03-22T04:15:20;1.20;;;0.87;;
46781;SDS011;32541;46.298;11.506;2024-03-22T04:17:46;4.40;;;1.20;;
46781;SDS011;32541;46.298;11.506;2024-03-22T04:20:11;1.60;;;0.80;;
46781;SDS011;32541;46.298;11.506;2024-03-22T04:22:37;1.60;;;0.97;;
46781;SDS011;32541;46.298;11.506;2024-03-22T04:25:03;2.10;;;1.10;;
46781;SDS011;32541;46.298;11.506;2024-03-22T04:27:28;2.40;;;1.23;;
46781;SDS011;32541;46.298;11.506;2024-03-22T04:29:54;2.17;;;1.10;;
46781;SDS011;32541;46.298;11.506;2024-03-22T04:32:19;2.70;;;1.10;;
46781;SDS011;32541;46.298;11.506;2024-03-22T04:34:45;2.90;;;1.10;;
46781;SDS011;32541;46.298;11.506;2024-03-22T04:37:10;1.70;;;1.17;;
46781;SDS011;32541;46.298;11.506;2024-03-22T04:39:39;2.40;;;1.33;;
46781;SDS011;32541;46.298;11.506;2024-03-22T04:42:05;2.00;;;1.40;;
46781;SDS011;32541;46.298;11.506;2024-03-22T04:44:31;2.43;;;1.20;;
46781;SDS011;32541;46.298;11.506;2024-03-22T04:46:56;3.43;;;1.10;;
46781;SDS011;32541;46.298;11.506;2024-03-22T04:49:22;2.70;;;1.17;;
46781;SDS011;32541;46.298;11.506;2024-03-22T04:51:47;1.93;;;1.20;;
46781;SDS011;32541;46.298;11.506;2024-03-22T04:54:13;3.03;;;1.50;;
46781;SDS011;32541;46.298;11.506;2024-03-22T04:56:39;1.93;;;1.10;;
46781;SDS011;32541;46.298;11.506;2024-03-22T04:59:05;1.23;;;0.87;;
46781;SDS011;32541;46.298;11.506;2024-03-22T05:01:30;1.97;;;1.20;;
46781;SDS011;32541;46.298;11.506;2024-03-22T05:03:55;2.90;;;0.80;;
46781;SDS011;32541;46.298;11.506;2024-03-22T05:06:21;3.53;;;1.33;;
46781;SDS011;32541;46.298;11.506;2024-03-22T05:08:46;1.73;;;1.03;;
46781;SDS011;32541;46.298;11.506;2024-03-22T05:11:11;13.93;;;8.53;;
46781;SDS011;32541;46.298;11.506;2024-03-22T05:13:37;5.40;;;3.27;;
46781;SDS011;32541;46.298;11.506;2024-03-22T05:16:04;4.77;;;1.37;;
46781;SDS011;32541;46.298;11.506;2024-03-22T05:18:30;2.43;;;1.40;;
46781;SDS011;32541;46.298;11.506;2024-03-22T05:20:55;1.90;;;1.13;;
46781;SDS011;32541;46.298;11.506;2024-03-22T05:23:20;2.27;;;1.10;;
46781;SDS011;32541;46.298;11.506;2024-03-22T05:25:46;2.30;;;1.13;;
46781;SDS011;32541;46.298;11.506;2024-03-22T05:28:11;2.63;;;1.50;;
46781;SDS011;32541;46.298;11.506;2024-03-22T05:30:36;3.10;;;1.20;;
46781;SDS011;32541;46.298;11.506;2024-03-22T05:33:02;3.30;;;1.60;;
46781;SDS011;32541;46.298;11.506;2024-03-22T05:35:27;3.27;;;1.77;;
46781;SDS011;32541;46.298;11.506;2024-03-22T05:37:52;2.67;;;1.63;;
46781;SDS011;32541;46.298;11.506;2024-03-22T05:40:18;10.80;;;4.13;;
46781;SDS011;32541;46.298;11.506;2024-03-22T05:42:43;35.27;;;17.60;;
46781;SDS011;32541;46.298;11.506;2024-03-22T05:45:09;30.40;;;15.17;;
46781;SDS011;32541;46.298;11.506;2024-03-22T05:47:34;4.33;;;2.17;;
46781;SDS011;32541;46.298;11.506;2024-03-22T05:50:00;7.47;;;3.13;;
46781;SDS011;32541;46.298;11.506;2024-03-22T05:52:26;8.93;;;3.43;;
46781;SDS011;32541;46.298;11.506;2024-03-22T05:54:52;8.20;;;5.27;;
46781;SDS011;32541;46.298;11.506;2024-03-22T05:57:17;7.73;;;4.93;;
46781;SDS011;32541;46.298;11.506;2024-03-22T05:59:43;7.63;;;4.23;;
46781;SDS011;32541;46.298;11.506;2024-03-22T06:02:08;10.77;;;6.67;;
46781;SDS011;32541;46.298;11.506;2024-03-22T06:04:34;14.13;;;7.07;;
46781;SDS011;32541;46.298;11.506;2024-03-22T06:06:59;26.37;;;9.63;;
46781;SDS011;32541;46.298;11.506;2024-03-22T06:09:28;21.07;;;7.37;;
46781;SDS011;32541;46.298;11.506;2024-03-22T06:12:03;17.17;;;7.47;;
46781;SDS011;32541;46.298;11.506;2024-03-22T06:14:29;16.33;;;6.00;;
46781;SDS011;32541;46.298;11.506;2024-03-22T06:16:55;5.00;;;2.40;;
46781;SDS011;32541;46.298;11.506;2024-03-22T06:19:20;5.63;;;2.37;;
46781;SDS011;32541;46.298;11.506;2024-03-22T06:21:46;11.03;;;4.77;;
46781;SDS011;32541;46.298;11.506;2024-03-22T06:24:11;9.43;;;4.40;;
46781;SDS011;32541;46.298;11.506;2024-03-22T06:26:37;9.67;;;5.13;;
46781;SDS011;32541;46.298;11.506;2024-03-22T06:29:02;7.40;;;4.17;;
46781;SDS011;32541;46.298;11.506;2024-03-22T06:31:28;5.77;;;2.40;;
46781;SDS011;32541;46.298;11.506;2024-03-22T06:33:54;5.80;;;3.00;;
46781;SDS011;32541;46.298;11.506;2024-03-22T06:36:22;5.57;;;3.40;;
46781;SDS011;32541;46.298;11.506;2024-03-22T06:38:47;8.93;;;3.20;;
46781;SDS011;32541;46.298;11.506;2024-03-22T06:41:12;2.90;;;1.57;;
46781;SDS011;32541;46.298;11.506;2024-03-22T06:43:38;2.63;;;1.80;;
46781;SDS011;32541;46.298;11.506;2024-03-22T06:46:03;2.97;;;1.80;;
46781;SDS011;32541;46.298;11.506;2024-03-22T06:48:29;4.30;;;1.77;;
46781;SDS011;32541;46.298;11.506;2024-03-22T06:50:54;5.47;;;1.50;;
46781;SDS011;32541;46.298;11.506;2024-03-22T06:53:20;9.90;;;5.30;;
46781;SDS011;32541;46.298;11.506;2024-03-22T06:55:45;13.07;;;7.30;;
46781;SDS011;32541;46.298;11.506;2024-03-22T06:58:10;7.43;;;3.73;;
46781;SDS011;32541;46.298;11.506;2024-03-22T07:00:36;15.50;;;8.03;;
46781;SDS011;32541;46.298;11.506;2024-03-22T07:03:02;6.83;;;4.83;;
46781;SDS011;32541;46.298;11.506;2024-03-22T07:05:28;31.77;;;19.90;;
46781;SDS011;32541;46.298;11.506;2024-03-22T07:07:54;16.33;;;10.15;;
46781;SDS011;32541;46.298;11.506;2024-03-22T07:10:21;2.95;;;2.15;;
46781;SDS011;32541;46.298;11.506;2024-03-22T07:12:47;2.00;;;1.00;;
46781;SDS011;32541;46.298;11.506;2024-03-22T07:15:12;1.67;;;1.00;;
46781;SDS011;32541;46.298;11.506;2024-03-22T07:17:38;1.95;;;1.10;;
46781;SDS011;32541;46.298;11.506;2024-03-22T07:20:03;6.95;;;1.33;;
46781;SDS011;32541;46.298;11.506;2024-03-22T07:22:29;3.08;;;1.65;;
46781;SDS011;32541;46.298;11.506;2024-03-22T07:24:55;4.20;;;1.10;;
46781;SDS011;32541;46.298;11.506;2024-03-22T07:27:21;4.47;;;1.23;;
46781;SDS011;32541;46.298;11.506;2024-03-22T07:29:46;3.00;;;1.85;;
46781;SDS011;32541;46.298;11.506;2024-03-22T07:32:11;4.47;;;1.90;;
46781;SDS011;32541;46.298;11.506;2024-03-22T07:34:37;4.95;;;1.85;;
46781;SDS011;32541;46.298;11.506;2024-03-22T07:37:02;6.93;;;1.40;;
46781;SDS011;32541;46.298;11.506;2024-03-22T07:39:29;8.23;;;1.73;;
46781;SDS011;32541;46.298;11.506;2024-03-22T07:41:55;4.35;;;1.77;;
46781;SDS011;32541;46.298;11.506;2024-03-22T07:44:20;3.15;;;1.10;;
46781;SDS011;32541;46.298;11.506;2024-03-22T07:46:46;1.65;;;0.80;;
46781;SDS011;32541;46.298;11.506;2024-03-22T07:49:12;2.88;;;0.73;;
46781;SDS011;32541;46.298;11.506;2024-03-22T07:51:38;1.00;;;0.70;;
46781;SDS011;32541;46.298;11.506;2024-03-22T07:54:03;1.48;;;0.90;;
46781;SDS011;32541;46.298;11.506;2024-03-22T07:56:29;5.80;;;1.70;;
46781;SDS011;32541;46.298;11.506;2024-03-22T07:58:54;3.53;;;1.30;;
46781;SDS011;32541;46.298;11.506;2024-03-22T08:01:20;3.85;;;1.80;;
46781;SDS011;32541;46.298;11.506;2024-03-22T08:03:46;3.22;;;1.40;;
46781;SDS011;32541;46.298;11.506;2024-03-22T08:06:13;2.92;;;1.73;;
46781;SDS011;32541;46.298;11.506;2024-03-22T08:08:38;2.60;;;1.90;;
46781;SDS011;32541;46.298;11.506;2024-03-22T08:11:03;2.47;;;1.48;;
46781;SDS011;32541;46.298;11.506;2024-03-22T08:13:29;2.55;;;1.48;;
46781;SDS011;32541;46.298;11.506;2024-03-22T08:15:54;7.00;;;2.60;;
46781;SDS011;32541;46.298;11.506;2024-03-22T08:18:19;4.60;;;2.42;;
46781;SDS011;32541;46.298;11.506;2024-03-22T08:20:45;5.90;;;2.80;;
46781;SDS011;32541;46.298;11.506;2024-03-22T08:23:10;3.97;;;2.65;;
46781;SDS011;32541;46.298;11.506;2024-03-22T08:25:35;7.10;;;2.50;;
46781;SDS011;32541;46.298;11.506;2024-03-22T08:28:02;7.53;;;2.38;;
46781;SDS011;32541;46.298;11.506;2024-03-22T08:30:27;5.28;;;2.42;;
46781;SDS011;32541;46.298;11.506;2024-03-22T08:32:52;4.68;;;2.60;;
46781;SDS011;32541;46.298;11.506;2024-03-22T08:35:18;6.00;;;1.88;;
46781;SDS011;32541;46.298;11.506;2024-03-22T08:37:43;3.13;;;1.85;;
46781;SDS011;32541;46.298;11.506;2024-03-22T08:40:09;3.72;;;1.70;;
46781;SDS011;32541;46.298;11.506;2024-03-22T08:42:35;2.72;;;1.50;;
46781;SDS011;32541;46.298;11.506;2024-03-22T08:45:01;2.17;;;1.48;;
46781;SDS011;32541;46.298;11.506;2024-03-22T08:47:26;3.15;;;1.98;;
46781;SDS011;32541;46.298;11.506;2024-03-22T08:49:52;3.28;;;1.90;;
46781;SDS011;32541;46.298;11.506;2024-03-22T08:52:17;7.25;;;1.83;;
46781;SDS011;32541;46.298;11.506;2024-03-22T08:54:42;4.75;;;1.85;;
46781;SDS011;32541;46.298;11.506;2024-03-22T08:57:08;5.15;;;1.58;;
46781;SDS011;32541;46.298;11.506;2024-03-22T08:59:33;5.68;;;1.80;;
46781;SDS011;32541;46.298;11.506;2024-03-22T09:02:00;3.35;;;2.13;;
46781;SDS011;32541;46.298;11.506;2024-03-22T09:04:25;2.65;;;1.55;;
46781;SDS011;32541;46.298;11.506;2024-03-22T09:06:51;2.83;;;1.38;;
46781;SDS011;32541;46.298;11.506;2024-03-22T09:09:16;4.53;;;1.70;;
46781;SDS011;32541;46.298;11.506;2024-03-22T09:11:42;3.88;;;1.40;;
46781;SDS011;32541;46.298;11.506;2024-03-22T09:14:07;5.80;;;1.45;;
46781;SDS011;32541;46.298;11.506;2024-03-22T09:16:32;2.20;;;1.33;;
46781;SDS011;32541;46.298;11.506;2024-03-22T09:18:58;2.65;;;1.42;;
46781;SDS011;32541;46.298;11.506;2024-03-22T09:21:23;3.13;;;1.60;;
46781;SDS011;32541;46.298;11.506;2024-03-22T09:23:49;4.22;;;1.30;;
46781;SDS011;32541;46.298;11.506;2024-03-22T09:26:15;1.75;;;1.20;;
46781;SDS011;32541;46.298;11.506;2024-03-22T09:28:40;4.07;;;1.85;;
46781;SDS011;32541;46.298;11.506;2024-03-22T09:31:07;1.80;;;1.30;;
46781;SDS011;32541;46.298;11.506;2024-03-22T09:33:33;2.25;;;1.40;;
46781;SDS011;32541;46.298;11.506;2024-03-22T09:35:59;3.47;;;1.42;;
46781;SDS011;32541;46.298;11.506;2024-03-22T09:38:24;3.40;;;1.60;;
46781;SDS011;32541;46.298;11.506;2024-03-22T09:40:50;3.05;;;1.08;;
46781;SDS011;32541;46.298;11.506;2024-03-22T09:43:19;2.97;;;0.98;;
46781;SDS011;32541;46.298;11.506;2024-03-22T09:45:45;2.20;;;1.27;;
46781;SDS011;32541;46.298;11.506;2024-03-22T09:48:12;1.50;;;0.77;;
46781;SDS011;32541;46.298;11.506;2024-03-22T09:50:38;2.92;;;0.85;;
46781;SDS011;32541;46.298;11.506;2024-03-22T09:53:05;2.58;;;0.93;;
46781;SDS011;32541;46.298;11.506;2024-03-22T09:55:32;1.67;;;0.80;;
46781;SDS011;32541;46.298;11.506;2024-03-22T09:58:00;2.13;;;1.00;;
46781;SDS011;32541;46.298;11.506;2024-03-22T10:00:25;2.38;;;1.10;;
46781;SDS011;32541;46.298;11.506;2024-03-22T10:02:51;2.72;;;1.20;;
46781;SDS011;32541;46.298;11.506;2024-03-22T10:05:18;2.00;;;0.93;;
46781;SDS011;32541;46.298;11.506;2024-03-22T10:07:44;1.85;;;1.10;;
46781;SDS011;32541;46.298;11.506;2024-03-22T10:10:10;3.63;;;1.40;;
46781;SDS011;32541;46.298;11.506;2024-03-22T10:12:36;2.03;;;1.20;;
46781;SDS011;32541;46.298;11.506;2024-03-22T10:15:02;1.75;;;1.08;;
46781;SDS011;32541;46.298;11.506;2024-03-22T10:17:28;1.75;;;1.30;;
46781;SDS011;32541;46.298;11.506;2024-03-22T10:19:54;1.80;;;1.00;;
46781;SDS011;32541;46.298;11.506;2024-03-22T10:22:19;1.58;;;1.10;;
46781;SDS011;32541;46.298;11.506;2024-03-22T10:24:44;1.63;;;1.05;;
46781;SDS011;32541;46.298;11.506;2024-03-22T10:27:10;1.08;;;0.88;;
46781;SDS011;32541;46.298;11.506;2024-03-22T10:29:36;1.85;;;1.00;;
46781;SDS011;32541;46.298;11.506;2024-03-22T10:32:01;5.70;;;1.40;;
46781;SDS011;32541;46.298;11.506;2024-03-22T10:34:27;1.85;;;0.95;;
46781;SDS011;32541;46.298;11.506;2024-03-22T10:36:53;1.60;;;0.90;;
46781;SDS011;32541;46.298;11.506;2024-03-22T10:39:21;2.15;;;0.93;;
46781;SDS011;32541;46.298;11.506;2024-03-22T10:41:48;2.30;;;0.90;;
46781;SDS011;32541;46.298;11.506;2024-03-22T10:44:14;0.80;;;0.40;;
46781;SDS011;32541;46.298;11.506;2024-03-22T10:46:47;1.50;;;0.65;;
46781;SDS011;32541;46.298;11.506;2024-03-22T10:49:17;1.42;;;1.00;;
46781;SDS011;32541;46.298;11.506;2024-03-22T10:51:46;1.92;;;0.80;;
46781;SDS011;32541;46.298;11.506;2024-03-22T10:54:18;1.67;;;0.80;;
46781;SDS011;32541;46.298;11.506;2024-03-22T10:56:46;1.42;;;0.77;;
46781;SDS011;32541;46.298;11.506;2024-03-22T10:59:13;0.82;;;0.57;;
46781;SDS011;32541;46.298;11.506;2024-03-22T11:01:45;1.35;;;0.55;;
46781;SDS011;32541;46.298;11.506;2024-03-22T11:04:11;1.65;;;0.90;;
46781;SDS011;32541;46.298;11.506;2024-03-22T11:06:36;1.60;;;0.60;;
46781;SDS011;32541;46.298;11.506;2024-03-22T11:09:02;0.90;;;0.55;;
46781;SDS011;32541;46.298;11.506;2024-03-22T11:11:31;1.77;;;0.60;;
46781;SDS011;32541;46.298;11.506;2024-03-22T11:14:02;1.50;;;0.70;;
46781;SDS011;32541;46.298;11.506;2024-03-22T11:16:30;1.25;;;0.60;;
46781;SDS011;32541;46.298;11.506;2024-03-22T11:18:55;1.70;;;0.70;;
46781;SDS011;32541;46.298;11.506;2024-03-22T11:21:21;2.75;;;0.70;;
46781;SDS011;32541;46.298;11.506;2024-03-22T11:23:46;1.50;;;0.70;;
46781;SDS011;32541;46.298;11.506;2024-03-22T11:26:12;1.95;;;0.90;;
46781;SDS011;32541;46.298;11.506;2024-03-22T11:28:38;2.20;;;0.88;;
46781;SDS011;32541;46.298;11.506;2024-03-22T11:31:07;1.92;;;0.60;;
46781;SDS011;32541;46.298;11.506;2024-03-22T11:33:32;0.80;;;0.40;;
46781;SDS011;32541;46.298;11.506;2024-03-22T11:36:01;3.00;;;0.65;;
46781;SDS011;32541;46.298;11.506;2024-03-22T11:38:27;1.33;;;0.50;;
46781;SDS011;32541;46.298;11.506;2024-03-22T11:40:53;0.85;;;0.70;;
46781;SDS011;32541;46.298;11.506;2024-03-22T11:43:20;1.73;;;0.55;;
46781;SDS011;32541;46.298;11.506;2024-03-22T11:45:46;2.28;;;0.60;;
46781;SDS011;32541;46.298;11.506;2024-03-22T11:48:11;1.42;;;0.50;;
46781;SDS011;32541;46.298;11.506;2024-03-22T11:50:37;2.92;;;0.70;;
46781;SDS011;32541;46.298;11.506;2024-03-22T11:53:04;3.42;;;0.70;;
46781;SDS011;32541;46.298;11.506;2024-03-22T11:55:30;3.22;;;1.80;;
46781;SDS011;32541;46.298;11.506;2024-03-22T11:57:59;1.40;;;0.60;;
46781;SDS011;32541;46.298;11.506;2024-03-22T12:00:24;1.38;;;0.82;;
46781;SDS011;32541;46.298;11.506;2024-03-22T12:02:51;0.75;;;0.50;;
46781;SDS011;32541;46.298;11.506;2024-03-22T12:05:20;2.33;;;0.50;;
46781;SDS011;32541;46.298;11.506;2024-03-22T12:07:46;1.48;;;0.55;;
46781;SDS011;32541;46.298;11.506;2024-03-22T12:10:11;1.83;;;0.40;;
46781;SDS011;32541;46.298;11.506;2024-03-22T12:12:37;1.83;;;0.60;;
46781;SDS011;32541;46.298;11.506;2024-03-22T12:15:05;1.55;;;0.90;;
46781;SDS011;32541;46.298;11.506;2024-03-22T12:17:31;1.65;;;0.98;;
46781;SDS011;32541;46.298;11.506;2024-03-22T12:19:56;0.90;;;0.50;;
46781;SDS011;32541;46.298;11.506;2024-03-22T12:22:22;0.47;;;0.40;;
46781;SDS011;32541;46.298;11.506;2024-03-22T12:24:48;0.95;;;0.60;;
46781;SDS011;32541;46.298;11.506;2024-03-22T12:27:13;0.80;;;0.52;;
46781;SDS011;32541;46.298;11.506;2024-03-22T12:29:38;1.60;;;0.50;;
46781;SDS011;32541;46.298;11.506;2024-03-22T12:32:04;1.02;;;0.50;;
46781;SDS011;32541;46.298;11.506;2024-03-22T12:34:30;2.45;;;0.50;;
46781;SDS011;32541;46.298;11.506;2024-03-22T12:36:57;0.95;;;0.70;;
46781;SDS011;32541;46.298;11.506;2024-03-22T12:39:23;1.20;;;0.70;;
46781;SDS011;32541;46.298;11.506;2024-03-22T12:41:49;1.30;;;0.60;;
46781;SDS011;32541;46.298;11.506;2024-03-22T12:44:15;0.85;;;0.57;;
46781;SDS011;32541;46.298;11.506;2024-03-22T12:46:40;1.08;;;0.40;;
46781;SDS011;32541;46.298;11.506;2024-03-22T12:49:08;1.45;;;0.70;;
46781;SDS011;32541;46.298;11.506;2024-03-22T12:51:37;1.10;;;0.50;;
46781;SDS011;32541;46.298;11.506;2024-03-22T12:54:03;1.05;;;0.50;;
46781;SDS011;32541;46.298;11.506;2024-03-22T12:56:30;1.10;;;0.60;;
46781;SDS011;32541;46.298;11.506;2024-03-22T12:58:56;1.50;;;0.70;;
46781;SDS011;32541;46.298;11.506;2024-03-22T13:01:21;1.67;;;0.80;;
46781;SDS011;32541;46.298;11.506;2024-03-22T13:03:47;0.60;;;0.40;;
46781;SDS011;32541;46.298;11.506;2024-03-22T13:06:12;0.68;;;0.40;;
46781;SDS011;32541;46.298;11.506;2024-03-22T13:08:38;0.57;;;0.45;;
46781;SDS011;32541;46.298;11.506;2024-03-22T13:11:03;2.33;;;0.38;;
46781;SDS011;32541;46.298;11.506;2024-03-22T13:13:29;1.23;;;0.63;;
46781;SDS011;32541;46.298;11.506;2024-03-22T13:15:56;1.20;;;0.50;;
46781;SDS011;32541;46.298;11.506;2024-03-22T13:18:23;2.30;;;0.57;;
46781;SDS011;32541;46.298;11.506;2024-03-22T13:20:48;0.57;;;0.45;;
46781;SDS011;32541;46.298;11.506;2024-03-22T13:23:14;0.82;;;0.50;;
46781;SDS011;32541;46.298;11.506;2024-03-22T13:25:39;2.92;;;0.60;;
46781;SDS011;32541;46.298;11.506;2024-03-22T13:28:05;1.98;;;0.60;;
46781;SDS011;32541;46.298;11.506;2024-03-22T13:30:30;2.33;;;0.52;;
46781;SDS011;32541;46.298;11.506;2024-03-22T13:32:56;1.05;;;0.70;;
46781;SDS011;32541;46.298;11.506;2024-03-22T13:35:22;2.42;;;0.50;;
46781;SDS011;32541;46.298;11.506;2024-03-22T13:37:47;1.30;;;0.70;;
46781;SDS011;32541;46.298;11.506;2024-03-22T13:40:12;6.15;;;0.88;;
46781;SDS011;32541;46.298;11.506;2024-03-22T13:42:38;2.53;;;0.40;;
46781;SDS011;32541;46.298;11.506;2024-03-22T13:45:03;0.95;;;0.40;;
46781;SDS011;32541;46.298;11.506;2024-03-22T13:47:29;1.50;;;0.57;;
46781;SDS011;32541;46.298;11.506;2024-03-22T13:49:55;1.58;;;0.70;;
46781;SDS011;32541;46.298;11.506;2024-03-22T13:52:20;1.55;;;0.43;;
46781;SDS011;32541;46.298;11.506;2024-03-22T13:54:48;0.57;;;0.38;;
46781;SDS011;32541;46.298;11.506;2024-03-22T13:57:15;3.33;;;0.60;;
46781;SDS011;32541;46.298;11.506;2024-03-22T13:59:40;1.33;;;0.40;;
46781;SDS011;32541;46.298;11.506;2024-03-22T14:02:06;1.63;;;0.50;;
46781;SDS011;32541;46.298;11.506;2024-03-22T14:04:34;1.17;;;0.65;;
46781;SDS011;32541;46.298;11.506;2024-03-22T14:07:00;0.82;;;0.32;;
46781;SDS011;32541;46.298;11.506;2024-03-22T14:09:30;1.48;;;0.65;;
46781;SDS011;32541;46.298;11.506;2024-03-22T14:11:56;1.92;;;0.60;;
46781;SDS011;32541;46.298;11.506;2024-03-22T14:14:22;4.47;;;0.47;;
46781;SDS011;32541;46.298;11.506;2024-03-22T14:16:49;1.58;;;0.55;;
46781;SDS011;32541;46.298;11.506;2024-03-22T14:19:14;1.40;;;0.60;;
46781;SDS011;32541;46.298;11.506;2024-03-22T14:21:40;0.68;;;0.40;;
46781;SDS011;32541;46.298;11.506;2024-03-22T14:24:06;1.60;;;0.60;;